createdAt,value
2018-06-17T00:02:10.510Z,5.40
2018-06-17T00:04:42.200Z,5.20
2018-06-17T00:07:13.255Z,5.43
2018-06-17T00:09:44.432Z,5.70
2018-06-17T00:12:15.652Z,5.13
2018-06-17T00:14:47.052Z,5.50
2018-06-17T00:17:18.698Z,4.83
2018-06-17T00:19:49.985Z,5.47
2018-06-17T00:22:21.189Z,5.67
2018-06-17T00:24:52.380Z,5.60
2018-06-17T00:27:23.851Z,5.50
2018-06-17T00:29:55.196Z,5.50
2018-06-17T00:32:26.348Z,5.20
2018-06-17T00:34:57.536Z,6.17
2018-06-17T00:37:28.555Z,5.70
2018-06-17T00:39:59.923Z,5.87
2018-06-17T00:42:31.105Z,6.20
2018-06-17T00:45:02.366Z,5.73
2018-06-17T00:47:33.700Z,6.00
2018-06-17T00:50:05.996Z,5.87
2018-06-17T00:52:36.623Z,6.43
2018-06-17T00:55:07.899Z,6.47
2018-06-17T00:57:52.271Z,6.30
2018-06-17T01:00:24.235Z,6.13
2018-06-17T01:02:55.427Z,6.03
2018-06-17T01:05:26.632Z,6.37
2018-06-17T01:07:57.777Z,6.20
2018-06-17T01:10:28.955Z,6.00
2018-06-17T01:13:00.164Z,6.27
2018-06-17T01:15:31.205Z,6.93
2018-06-17T01:18:02.604Z,6.13
2018-06-17T01:20:33.760Z,6.17
2018-06-17T01:23:05.152Z,6.67
2018-06-17T01:25:36.536Z,6.00
2018-06-17T01:28:07.679Z,6.37
2018-06-17T01:30:38.703Z,6.47
2018-06-17T01:33:09.712Z,6.70
2018-06-17T01:35:41.083Z,5.97
2018-06-17T01:38:12.119Z,6.63
2018-06-17T01:40:43.550Z,6.40
2018-06-17T01:43:14.667Z,6.10
2018-06-17T01:45:45.700Z,6.30
2018-06-17T01:48:17.044Z,6.57
2018-06-17T01:50:48.702Z,6.30
2018-06-17T01:53:19.843Z,5.60
2018-06-17T01:55:51.771Z,6.10
2018-06-17T01:58:23.016Z,5.90
2018-06-17T02:00:54.378Z,6.00
2018-06-17T02:03:30.736Z,6.23
2018-06-17T02:06:06.852Z,6.03
2018-06-17T02:08:43.097Z,6.50
2018-06-17T02:11:19.291Z,6.20
2018-06-17T02:13:50.575Z,6.43
2018-06-17T02:16:22.427Z,5.57
2018-06-17T02:18:53.536Z,6.50
2018-06-17T02:21:25.030Z,6.10
2018-06-17T02:23:56.270Z,6.00
2018-06-17T02:26:27.542Z,6.00
2018-06-17T02:28:58.908Z,6.33
2018-06-17T02:31:30.103Z,6.13
2018-06-17T02:34:01.422Z,6.20
2018-06-17T02:36:32.680Z,6.63
2018-06-17T02:39:05.053Z,6.13
2018-06-17T02:41:36.592Z,6.63
2018-06-17T02:44:07.929Z,6.07
2018-06-17T02:47:41.803Z,6.60
2018-06-17T02:50:18.112Z,6.13
2018-06-17T02:52:54.504Z,6.30
2018-06-17T02:55:25.531Z,6.60
2018-06-17T02:57:56.931Z,6.47
2018-06-17T03:00:28.322Z,6.23
2018-06-17T03:02:59.740Z,5.93
2018-06-17T03:05:30.918Z,6.57
2018-06-17T03:08:02.571Z,5.67
2018-06-17T03:10:33.660Z,6.27
2018-06-17T03:13:04.844Z,6.47
2018-06-17T03:15:35.864Z,6.10
2018-06-17T03:18:07.257Z,6.37
2018-06-17T03:20:38.400Z,6.30
2018-06-17T03:23:09.650Z,6.63
2018-06-17T03:25:45.626Z,7.10
2018-06-17T03:28:21.999Z,6.30
2018-06-17T03:30:58.033Z,6.63
2018-06-17T03:33:34.204Z,6.57
2018-06-17T03:36:10.881Z,6.90
2018-06-17T03:38:42.791Z,6.33
2018-06-17T03:41:14.107Z,6.40
2018-06-17T03:43:45.120Z,6.23
2018-06-17T03:46:16.791Z,6.97
2018-06-17T03:48:48.556Z,6.80
2018-06-17T03:51:19.882Z,6.30
2018-06-17T03:53:51.301Z,7.03
2018-06-17T03:56:22.444Z,6.77
2018-06-17T03:58:54.097Z,6.67
2018-06-17T04:01:25.192Z,6.03
2018-06-17T04:03:56.492Z,6.33
2018-06-17T04:06:27.783Z,6.67
2018-06-17T04:08:58.983Z,6.00
2018-06-17T04:11:29.983Z,6.37
2018-06-17T04:14:01.370Z,5.93
2018-06-17T04:16:32.582Z,6.80
2018-06-17T04:19:03.966Z,6.53
2018-06-17T04:21:35.463Z,6.10
2018-06-17T04:24:06.571Z,6.30
2018-06-17T04:26:37.922Z,6.40
2018-06-17T04:29:09.288Z,6.17
2018-06-17T04:31:40.417Z,6.67
2018-06-17T04:34:11.491Z,6.33
2018-06-17T04:36:42.888Z,6.17
2018-06-17T04:39:14.083Z,6.20
2018-06-17T04:41:45.740Z,6.47
2018-06-17T04:44:17.040Z,6.10
2018-06-17T04:46:48.195Z,6.20
2018-06-17T04:49:19.485Z,6.07
2018-06-17T04:51:50.678Z,5.47
2018-06-17T04:54:21.784Z,5.93
2018-06-17T04:56:52.819Z,5.83
2018-06-17T04:59:24.473Z,5.50
2018-06-17T05:01:55.768Z,5.80
2018-06-17T05:04:26.769Z,5.77
2018-06-17T05:06:58.127Z,5.60
2018-06-17T05:09:29.368Z,6.20
2018-06-17T05:12:00.735Z,6.03
2018-06-17T05:14:32.223Z,5.90
2018-06-17T05:17:03.591Z,6.37
2018-06-17T05:19:34.923Z,6.17
2018-06-17T05:22:06.619Z,6.53
2018-06-17T05:24:37.872Z,6.33
2018-06-17T05:27:08.879Z,6.00
2018-06-17T05:29:40.447Z,6.00
2018-06-17T05:32:11.464Z,5.87
2018-06-17T05:34:42.856Z,6.00
2018-06-17T05:37:14.199Z,5.50
2018-06-17T05:39:46.389Z,6.00
2018-06-17T05:42:17.602Z,5.87
2018-06-17T05:44:49.457Z,5.63
2018-06-17T05:47:20.746Z,5.63
2018-06-17T05:49:51.976Z,5.87
2018-06-17T05:52:23.695Z,5.73
2018-06-17T05:54:54.991Z,6.10
2018-06-17T05:57:26.126Z,6.27
2018-06-17T05:59:57.492Z,5.90
2018-06-17T06:02:28.684Z,6.27
2018-06-17T06:04:59.887Z,5.60
2018-06-17T06:07:31.377Z,5.50
2018-06-17T06:10:03.251Z,5.60
2018-06-17T06:12:34.241Z,5.90
2018-06-17T06:15:06.101Z,5.97
2018-06-17T06:17:37.490Z,5.40
2018-06-17T06:20:11.205Z,5.90
2018-06-17T06:22:43.058Z,5.97
2018-06-17T06:25:14.333Z,5.60
2018-06-17T06:27:45.708Z,5.30
2018-06-17T06:30:16.736Z,5.43
2018-06-17T06:32:48.104Z,5.27
2018-06-17T06:35:19.291Z,5.97
2018-06-17T06:37:50.296Z,5.60
2018-06-17T06:40:21.499Z,5.23
2018-06-17T06:42:52.874Z,5.90
2018-06-17T06:45:23.886Z,5.10
2018-06-17T06:47:55.076Z,5.17
2018-06-17T06:50:26.721Z,4.90
2018-06-17T06:52:58.076Z,4.93
2018-06-17T06:55:29.690Z,4.40
2018-06-17T06:58:01.071Z,4.70
2018-06-17T07:00:32.419Z,4.50
2018-06-17T07:03:19.198Z,4.57
2018-06-17T07:06:06.427Z,5.00
2018-06-17T07:08:53.416Z,4.67
2018-06-17T07:11:24.571Z,4.37
2018-06-17T07:13:55.930Z,4.30
2018-06-17T07:16:43.298Z,4.40
2018-06-17T07:19:14.635Z,4.37
2018-06-17T07:21:46.009Z,4.10
2018-06-17T07:24:17.498Z,3.77
2018-06-17T07:27:04.703Z,4.10
2018-06-17T07:29:44.635Z,3.83
2018-06-17T07:32:15.956Z,3.90
2018-06-17T07:34:47.358Z,3.90
2018-06-17T07:37:19.011Z,3.63
2018-06-17T07:40:58.535Z,3.60
2018-06-17T07:43:30.199Z,3.70
2018-06-17T07:46:01.648Z,4.10
2018-06-17T07:49:50.945Z,4.10
2018-06-17T07:52:39.353Z,3.90
2018-06-17T07:55:10.968Z,4.00
2018-06-17T07:57:42.455Z,4.23
2018-06-17T08:00:14.090Z,3.80
2018-06-17T08:02:45.383Z,3.83
2018-06-17T08:05:16.401Z,3.73
2018-06-17T08:07:48.060Z,3.70
2018-06-17T08:10:19.366Z,3.80
2018-06-17T08:12:50.777Z,4.03
2018-06-17T08:15:21.952Z,4.00
2018-06-17T08:17:53.155Z,4.10
2018-06-17T08:20:24.368Z,4.30
2018-06-17T08:22:55.724Z,4.67
2018-06-17T08:25:27.504Z,4.30
2018-06-17T08:27:58.710Z,4.50
2018-06-17T08:30:30.120Z,3.70
2018-06-17T08:33:01.320Z,3.53
2018-06-17T08:35:32.458Z,3.90
2018-06-17T08:38:03.866Z,4.20
2018-06-17T08:40:35.254Z,3.40
2018-06-17T08:43:06.462Z,3.87
2018-06-17T08:45:37.824Z,3.73
2018-06-17T08:48:09.468Z,3.40
2018-06-17T08:50:40.820Z,3.83
2018-06-17T08:53:12.168Z,4.03
2018-06-17T08:55:43.247Z,3.53
2018-06-17T08:58:14.553Z,3.80
2018-06-17T09:00:45.932Z,4.07
2018-06-17T09:03:18.080Z,3.97
2018-06-17T09:05:49.262Z,4.10
2018-06-17T09:08:20.456Z,4.10
2018-06-17T09:10:52.211Z,4.20
2018-06-17T09:13:23.262Z,4.10
2018-06-17T09:15:55.178Z,4.47
2018-06-17T09:18:26.472Z,3.90
2018-06-17T09:20:58.551Z,3.80
2018-06-17T09:23:29.817Z,4.10
2018-06-17T09:26:01.528Z,3.90
2018-06-17T09:28:32.605Z,4.13
2018-06-17T09:31:03.823Z,4.07
2018-06-17T09:33:35.025Z,3.70
2018-06-17T09:36:06.432Z,4.00
2018-06-17T09:38:37.787Z,4.10
2018-06-17T09:41:08.969Z,3.90
2018-06-17T09:43:40.626Z,3.87
2018-06-17T09:46:11.772Z,4.90
2018-06-17T09:48:44.376Z,10.50
2018-06-17T09:51:15.660Z,5.93
2018-06-17T09:53:47.136Z,4.33
2018-06-17T09:56:18.471Z,3.83
2018-06-17T09:58:49.604Z,3.80
2018-06-17T10:01:20.630Z,3.67
2018-06-17T10:03:52.101Z,3.87
2018-06-17T10:06:23.241Z,4.50
2018-06-17T10:08:54.651Z,4.00
2018-06-17T10:11:25.991Z,4.00
2018-06-17T10:13:57.380Z,3.50
2018-06-17T10:16:28.637Z,3.90
2018-06-17T10:18:59.794Z,3.53
2018-06-17T10:21:31.134Z,3.80
2018-06-17T10:24:02.331Z,3.93
2018-06-17T10:26:33.348Z,3.80
2018-06-17T10:29:04.560Z,4.50
2018-06-17T10:31:35.915Z,4.00
2018-06-17T10:34:06.937Z,3.93
2018-06-17T10:36:38.164Z,5.90
2018-06-17T10:39:10.320Z,4.10
2018-06-17T10:41:41.523Z,4.20
2018-06-17T10:44:12.953Z,4.27
2018-06-17T10:46:44.103Z,3.93
2018-06-17T10:49:15.716Z,4.13
2018-06-17T10:51:46.812Z,4.10
2018-06-17T10:54:18.020Z,4.10
2018-06-17T10:56:49.207Z,3.80
2018-06-17T10:59:20.843Z,4.40
2018-06-17T11:01:52.459Z,3.70
2018-06-17T11:04:23.759Z,4.07
2018-06-17T11:06:55.402Z,3.77
2018-06-17T11:09:26.676Z,4.07
2018-06-17T11:11:57.923Z,4.20
2018-06-17T11:14:29.323Z,4.20
2018-06-17T11:17:00.972Z,4.27
2018-06-17T11:19:32.301Z,4.10
2018-06-17T11:22:03.681Z,4.20
2018-06-17T11:24:34.869Z,3.77
2018-06-17T11:27:06.057Z,3.97
2018-06-17T11:29:37.760Z,4.67
2018-06-17T11:32:08.500Z,4.47
2018-06-17T11:34:39.889Z,5.03
2018-06-17T11:37:11.214Z,4.33
2018-06-17T11:39:42.603Z,4.30
2018-06-17T11:42:13.600Z,4.63
2018-06-17T11:44:45.095Z,4.87
2018-06-17T11:47:16.746Z,4.30
2018-06-17T11:49:48.510Z,4.63
2018-06-17T11:52:19.651Z,4.60
2018-06-17T11:54:52.030Z,4.40
2018-06-17T11:57:23.276Z,4.20
2018-06-17T11:59:54.471Z,4.67
2018-06-17T12:02:25.719Z,4.60
2018-06-17T12:04:57.363Z,4.10
2018-06-17T12:07:28.479Z,4.30
2018-06-17T12:10:00.312Z,4.23
2018-06-17T12:12:31.631Z,4.37
2018-06-17T12:15:03.023Z,4.00
2018-06-17T12:17:34.240Z,4.20
2018-06-17T12:20:05.732Z,4.57
2018-06-17T12:22:36.809Z,4.20
2018-06-17T12:25:08.174Z,4.60
2018-06-17T12:27:39.573Z,4.40
2018-06-17T12:30:11.232Z,5.20
2018-06-17T12:32:42.516Z,4.67
2018-06-17T12:35:14.216Z,4.80
2018-06-17T12:37:45.790Z,4.60
2018-06-17T12:40:16.927Z,4.17
2018-06-17T12:42:48.113Z,4.33
2018-06-17T12:45:19.470Z,4.70
2018-06-17T12:47:51.453Z,4.87
2018-06-17T12:50:22.751Z,4.20
2018-06-17T12:52:54.132Z,4.30
2018-06-17T12:55:25.227Z,4.20
2018-06-17T12:57:56.419Z,4.60
2018-06-17T13:00:27.826Z,4.67
2018-06-17T13:02:59.217Z,4.57
2018-06-17T13:05:30.630Z,4.70
2018-06-17T13:08:01.813Z,4.20
2018-06-17T13:10:33.220Z,4.10
2018-06-17T13:13:04.373Z,4.60
2018-06-17T13:15:35.755Z,4.40
2018-06-17T13:18:07.786Z,4.63
2018-06-17T13:20:38.986Z,4.30
2018-06-17T13:23:10.654Z,4.77
2018-06-17T13:25:42.110Z,4.77
2018-06-17T13:28:13.488Z,4.37
2018-06-17T13:30:45.001Z,4.90
2018-06-17T13:33:16.248Z,4.77
2018-06-17T13:35:47.695Z,4.70
2018-06-17T13:38:18.849Z,4.13
2018-06-17T13:40:50.528Z,4.53
2018-06-17T13:43:21.625Z,4.50
2018-06-17T13:45:53.281Z,4.40
2018-06-17T13:48:24.396Z,4.33
2018-06-17T13:50:55.786Z,4.80
2018-06-17T13:53:26.967Z,4.27
2018-06-17T13:55:58.177Z,3.90
2018-06-17T13:58:29.531Z,4.40
2018-06-17T14:01:01.286Z,4.37
2018-06-17T14:03:32.468Z,4.17
2018-06-17T14:06:03.717Z,3.73
2018-06-17T14:08:34.933Z,4.23
2018-06-17T14:11:06.335Z,4.33
2018-06-17T14:13:37.473Z,4.03
2018-06-17T14:16:08.512Z,4.00
2018-06-17T14:18:39.862Z,4.70
2018-06-17T14:21:11.076Z,4.07
2018-06-17T14:23:42.721Z,3.30
2018-06-17T14:26:14.182Z,3.27
2018-06-17T14:28:45.217Z,3.00
2018-06-17T14:31:16.723Z,3.33
2018-06-17T14:33:47.861Z,3.20
2018-06-17T14:36:19.253Z,3.20
2018-06-17T14:38:50.561Z,3.13
2018-06-17T14:41:21.585Z,2.40
2018-06-17T14:43:57.920Z,2.90
2018-06-17T14:46:34.086Z,2.57
2018-06-17T14:49:10.144Z,2.80
2018-06-17T14:51:46.389Z,2.33
2018-06-17T14:54:18.252Z,2.30
2018-06-17T14:56:49.547Z,2.30
2018-06-17T14:59:20.745Z,2.63
2018-06-17T15:01:51.988Z,2.13
2018-06-17T15:04:23.776Z,2.43
2018-06-17T15:06:55.105Z,2.30
2018-06-17T15:09:26.834Z,2.40
2018-06-17T15:11:58.073Z,2.03
2018-06-17T15:14:29.485Z,2.07
2018-06-17T15:17:00.531Z,2.10
2018-06-17T15:19:31.869Z,2.10
2018-06-17T15:22:03.104Z,2.20
2018-06-17T15:24:34.444Z,1.90
2018-06-17T15:27:06.102Z,1.87
2018-06-17T15:29:37.864Z,2.03
2018-06-17T15:32:14.216Z,2.00
2018-06-17T15:34:50.102Z,2.03
2018-06-17T15:37:26.458Z,2.03
2018-06-17T15:39:58.515Z,2.30
2018-06-17T15:42:29.679Z,2.00
2018-06-17T15:45:00.904Z,2.00
2018-06-17T15:47:33.293Z,1.77
2018-06-17T15:50:04.794Z,2.00
2018-06-17T15:52:35.994Z,1.73
2018-06-17T15:55:07.396Z,2.20
2018-06-17T15:57:38.779Z,2.00
2018-06-17T16:00:09.943Z,1.90
2018-06-17T16:02:41.628Z,2.10
2018-06-17T16:05:13.003Z,2.13
2018-06-17T16:07:44.397Z,2.13
2018-06-17T16:10:15.806Z,2.30
2018-06-17T16:12:52.014Z,1.97
2018-06-17T16:15:28.076Z,1.90
2018-06-17T16:18:04.115Z,2.13
2018-06-17T16:20:40.183Z,2.00
2018-06-17T16:23:11.356Z,2.00
2018-06-17T16:25:42.574Z,1.80
2018-06-17T16:28:14.180Z,2.10
2018-06-17T16:30:46.021Z,1.80
2018-06-17T16:33:17.851Z,1.80
2018-06-17T16:35:48.946Z,2.10
2018-06-17T16:38:20.294Z,2.37
2018-06-17T16:40:51.580Z,2.57
2018-06-17T16:43:22.312Z,2.17
2018-06-17T16:45:53.936Z,2.30
2018-06-17T16:48:25.079Z,2.10
2018-06-17T16:51:01.333Z,2.20
2018-06-17T16:53:37.409Z,2.33
2018-06-17T16:56:13.565Z,2.80
2018-06-17T16:58:49.829Z,2.27
2018-06-17T17:01:21.035Z,5.37
2018-06-17T17:03:52.883Z,2.60
2018-06-17T17:06:24.227Z,2.40
2018-06-17T17:08:55.900Z,3.00
2018-06-17T17:11:27.448Z,1.90
2018-06-17T17:13:58.806Z,2.30
2018-06-17T17:16:30.159Z,2.20
2018-06-17T17:19:01.622Z,2.50
2018-06-17T17:21:32.762Z,2.73
2018-06-17T17:24:04.209Z,2.27
2018-06-17T17:26:35.558Z,2.30
2018-06-17T17:29:06.805Z,2.53
2018-06-17T17:31:43.317Z,2.00
2018-06-17T17:35:21.435Z,2.30
2018-06-17T17:37:57.735Z,1.77
2018-06-17T17:40:33.851Z,1.70
2018-06-17T17:43:04.904Z,2.40
2018-06-17T17:45:40.342Z,2.10
2018-06-17T17:48:11.527Z,2.73
2018-06-17T17:50:42.737Z,2.83
2018-06-17T17:53:13.728Z,2.20
2018-06-17T17:55:44.735Z,2.40
2018-06-17T17:58:15.960Z,2.30
2018-06-17T18:00:47.116Z,2.57
2018-06-17T18:03:18.340Z,2.67
2018-06-17T18:05:49.743Z,2.10
2018-06-17T18:08:20.887Z,2.17
2018-06-17T18:10:52.399Z,2.23
2018-06-17T18:13:23.241Z,2.40
2018-06-17T18:15:54.751Z,2.20
2018-06-17T18:18:26.147Z,1.90
2018-06-17T18:20:57.635Z,2.40
2018-06-17T18:23:29.008Z,2.00
2018-06-17T18:26:04.936Z,2.17
2018-06-17T18:28:42.640Z,2.77
2018-06-17T18:31:13.848Z,2.53
2018-06-17T18:33:50.318Z,2.80
2018-06-17T18:36:22.241Z,4.23
2018-06-17T18:38:53.464Z,3.17
2018-06-17T18:42:27.241Z,3.00
2018-06-17T18:44:58.858Z,2.60
2018-06-17T18:47:29.978Z,3.03
2018-06-17T18:50:01.654Z,2.83
2018-06-17T18:52:32.896Z,3.13
2018-06-17T18:55:04.151Z,2.90
2018-06-17T18:57:35.345Z,3.67
2018-06-17T19:00:07.235Z,3.43
2018-06-17T19:02:38.535Z,2.70
2018-06-17T19:05:09.852Z,2.97
2018-06-17T19:07:41.413Z,2.70
2018-06-17T19:10:17.720Z,2.93
2018-06-17T19:12:53.684Z,3.27
2018-06-17T19:15:29.836Z,2.97
2018-06-17T19:18:07.450Z,2.70
2018-06-17T19:20:38.996Z,3.10
2018-06-17T19:23:10.088Z,2.83
2018-06-17T19:25:41.284Z,2.73
2018-06-17T19:28:12.888Z,2.80
2018-06-17T19:30:45.506Z,2.70
2018-06-17T19:33:16.768Z,2.77
2018-06-17T19:35:47.961Z,3.20
2018-06-17T19:38:19.208Z,2.97
2018-06-17T19:40:50.615Z,3.30
2018-06-17T19:43:21.988Z,3.60
2018-06-17T19:45:53.314Z,3.80
2018-06-17T19:48:24.693Z,3.80
2018-06-17T19:51:00.710Z,3.63
2018-06-17T19:53:36.763Z,3.60
2018-06-17T19:56:12.938Z,3.60
2018-06-17T19:58:48.975Z,4.27
2018-06-17T20:01:20.339Z,4.20
2018-06-17T20:03:51.543Z,3.90
2018-06-17T20:06:22.986Z,4.07
2018-06-17T20:08:54.179Z,4.10
2018-06-17T20:11:25.468Z,4.27
2018-06-17T20:13:56.218Z,4.67
2018-06-17T20:16:27.467Z,4.60
2018-06-17T20:18:59.212Z,4.40
2018-06-17T20:21:30.459Z,4.43
2018-06-17T20:24:01.786Z,4.50
2018-06-17T20:26:33.075Z,4.10
2018-06-17T20:29:04.460Z,4.37
2018-06-17T20:31:39.720Z,4.57
2018-06-17T20:34:15.804Z,4.60
2018-06-17T20:36:52.068Z,4.30
2018-06-17T20:39:28.394Z,3.93
2018-06-17T20:42:04.607Z,4.27
2018-06-17T20:44:35.808Z,4.10
2018-06-17T20:47:06.958Z,4.30
2018-06-17T20:49:38.363Z,4.17
2018-06-17T20:52:09.710Z,4.03
2018-06-17T20:54:41.364Z,4.23
2018-06-17T20:57:12.660Z,4.00
2018-06-17T20:59:43.858Z,4.10
2018-06-17T21:02:15.287Z,4.10
2018-06-17T21:04:46.452Z,4.10
2018-06-17T21:07:17.812Z,4.17
2018-06-17T21:09:49.058Z,3.93
2018-06-17T21:12:20.690Z,3.70
2018-06-17T21:14:51.832Z,3.37
2018-06-17T21:17:23.204Z,4.00
2018-06-17T21:19:59.200Z,3.70
2018-06-17T21:22:35.316Z,3.83
2018-06-17T21:25:12.314Z,4.00
2018-06-17T21:27:43.749Z,3.73
2018-06-17T21:30:15.356Z,3.83
2018-06-17T21:32:46.494Z,3.80
2018-06-17T21:35:18.518Z,3.80
2018-06-17T21:37:50.223Z,3.47
2018-06-17T21:40:21.215Z,3.70
2018-06-17T21:42:52.595Z,3.50
2018-06-17T21:45:23.608Z,3.43
2018-06-17T21:47:54.783Z,3.33
2018-06-17T21:50:26.115Z,3.00
2018-06-17T21:52:57.175Z,3.73
2018-06-17T21:55:28.589Z,3.47
2018-06-17T21:57:59.935Z,3.27
2018-06-17T22:00:31.389Z,3.37
2018-06-17T22:03:02.748Z,2.80
2018-06-17T22:05:33.921Z,3.40
2018-06-17T22:08:09.937Z,3.77
2018-06-17T22:10:46.130Z,3.30
2018-06-17T22:13:17.505Z,3.20
2018-06-17T22:17:55.772Z,3.17
2018-06-17T22:20:26.978Z,3.10
2018-06-17T22:22:58.597Z,3.50
2018-06-17T22:25:29.371Z,3.07
2018-06-17T22:28:00.473Z,2.93
2018-06-17T22:30:31.491Z,2.80
2018-06-17T22:33:02.872Z,2.93
2018-06-17T22:35:34.296Z,3.00
2018-06-17T22:38:06.436Z,3.10
2018-06-17T22:40:37.827Z,2.80
2018-06-17T22:43:08.984Z,3.10
2018-06-17T22:45:40.212Z,2.90
2018-06-17T22:48:11.629Z,3.20
2018-06-17T22:50:43.287Z,2.70
2018-06-17T22:53:24.335Z,3.30
2018-06-17T22:55:55.601Z,2.93
2018-06-17T22:58:32.169Z,2.93
2018-06-17T23:02:08.658Z,3.23
2018-06-17T23:04:44.606Z,3.00
2018-06-17T23:07:20.924Z,3.27
2018-06-17T23:09:52.683Z,3.30
2018-06-17T23:12:23.922Z,3.60
2018-06-17T23:14:54.927Z,3.50
2018-06-17T23:17:26.512Z,3.40
2018-06-17T23:19:58.188Z,3.23
2018-06-17T23:22:29.538Z,3.50
2018-06-17T23:25:00.853Z,3.40
2018-06-17T23:27:31.899Z,3.60
2018-06-17T23:30:03.324Z,3.33
2018-06-17T23:32:34.452Z,3.47
2018-06-17T23:35:05.856Z,3.67
2018-06-17T23:37:37.230Z,3.53
2018-06-17T23:40:08.619Z,3.33
2018-06-17T23:42:39.820Z,3.70
2018-06-17T23:45:11.829Z,3.80
2018-06-17T23:47:47.889Z,3.50
2018-06-17T23:50:23.881Z,3.90
2018-06-17T23:52:59.820Z,3.47
2018-06-17T23:55:35.294Z,3.87
2018-06-17T23:58:06.620Z,3.70
